createdAt,value
2022-08-12T00:01:11.056Z,100909.38
2022-08-12T00:03:56.503Z,100899.81
2022-08-12T00:06:44.303Z,100896.66
2022-08-12T00:09:29.832Z,100902.59
2022-08-12T00:12:15.906Z,100896.66
2022-08-12T00:15:03.111Z,100894.25
2022-08-12T00:17:48.602Z,100887.91
2022-08-12T00:20:34.739Z,100885.13
2022-08-12T00:23:21.125Z,100882.28
2022-08-12T00:26:23.183Z,100883.06
2022-08-12T00:29:11.955Z,100879.47
2022-08-12T00:32:00.498Z,100878.69
2022-08-12T00:34:49.215Z,100882.63
2022-08-12T00:37:36.452Z,100886.63
2022-08-12T00:40:27.690Z,100877.91
2022-08-12T00:42:56.703Z,100867.56
2022-08-12T00:45:24.052Z,100884.63
2022-08-12T00:47:53.254Z,100885.84
2022-08-12T00:50:23.550Z,100889.41
2022-08-12T00:52:53.239Z,100900.09
2022-08-12T00:55:21.502Z,100898.13
2022-08-12T00:57:50.830Z,100890.94
2022-08-12T01:00:23.284Z,100899.69
2022-08-12T01:02:53.796Z,100893.72
2022-08-12T01:05:41.958Z,100888.13
2022-08-12T01:08:48.515Z,100886.13
2022-08-12T01:11:33.139Z,100898.03
2022-08-12T01:14:02.293Z,100900.41
2022-08-12T01:16:30.971Z,100895.66
2022-08-12T01:18:58.719Z,100897.63
2022-08-12T01:21:55.444Z,100900.41
2022-08-12T01:24:53.417Z,100898.41
2022-08-12T01:27:23.621Z,100911.09
2022-08-12T01:29:53.387Z,100910.31
2022-08-12T01:32:22.728Z,100901.97
2022-08-12T01:35:03.625Z,100907.50
2022-08-12T01:37:33.893Z,100908.31
2022-08-12T01:40:34.535Z,100908.31
2022-08-12T01:42:52.264Z,100912.28
2022-08-12T01:45:25.093Z,100908.28
2022-08-12T01:48:29.623Z,100909.06
2022-08-12T01:51:11.966Z,100914.63
2022-08-12T01:54:11.001Z,100906.28
2022-08-12T01:57:02.567Z,100905.84
2022-08-12T01:59:50.182Z,100899.91
2022-08-12T02:02:32.970Z,100907.81
2022-08-12T02:05:49.284Z,100907.41
2022-08-12T02:09:09.127Z,100907.06
2022-08-12T02:12:00.561Z,100908.25
2022-08-12T02:14:51.983Z,100891.56
2022-08-12T02:17:55.267Z,100891.94
2022-08-12T02:20:51.490Z,100876.44
2022-08-12T02:23:27.273Z,100869.69
2022-08-12T02:25:59.704Z,100865.69
2022-08-12T02:28:29.194Z,100867.66
2022-08-12T02:31:02.255Z,100864.88
2022-08-12T02:33:30.191Z,100864.44
2022-08-12T02:35:58.210Z,100851.75
2022-08-12T02:38:28.163Z,100857.31
2022-08-12T02:41:02.872Z,100852.19
2022-08-12T02:43:49.638Z,100844.22
2022-08-12T02:46:23.826Z,100840.28
2022-08-12T02:49:16.249Z,100843.44
2022-08-12T02:51:47.266Z,100834.25
2022-08-12T02:54:14.916Z,100833.03
2022-08-12T02:56:50.955Z,100833.03
2022-08-12T02:59:22.876Z,100829.84
2022-08-12T03:01:50.007Z,100828.69
2022-08-12T03:04:45.065Z,100826.34
2022-08-12T03:07:18.491Z,100830.31
2022-08-12T03:10:05.625Z,100832.72
2022-08-12T03:12:49.138Z,100829.13
2022-08-12T03:15:24.146Z,100840.66
2022-08-12T03:18:25.907Z,100831.97
2022-08-12T03:20:48.431Z,100831.13
2022-08-12T03:23:28.987Z,100824.00
2022-08-12T03:26:02.079Z,100831.13
2022-08-12T03:28:53.180Z,100833.50
2022-08-12T03:31:21.812Z,100830.72
2022-08-12T03:34:01.327Z,100824.38
2022-08-12T03:36:35.423Z,100823.13
2022-08-12T03:39:16.172Z,100822.72
2022-08-12T03:42:07.631Z,100830.66
2022-08-12T03:44:57.525Z,100839.00
2022-08-12T03:47:57.399Z,100846.13
2022-08-12T03:50:44.980Z,100842.16
2022-08-12T03:53:31.288Z,100846.53
2022-08-12T03:56:16.974Z,100846.53
2022-08-12T03:59:02.914Z,100854.06
2022-08-12T04:01:30.490Z,100857.63
2022-08-12T04:03:58.269Z,100861.22
2022-08-12T04:06:34.290Z,100853.25
2022-08-12T04:09:14.485Z,100846.91
2022-08-12T04:12:03.780Z,100839.00
2022-08-12T04:14:32.326Z,100839.44
2022-08-12T04:17:00.410Z,100848.56
2022-08-12T04:19:28.679Z,100850.59
2022-08-12T04:22:02.827Z,100844.66
2022-08-12T04:24:35.575Z,100849.06
2022-08-12T04:27:08.871Z,100855.44
2022-08-12T04:30:16.368Z,100855.03
2022-08-12T04:32:26.382Z,100851.06
2022-08-12T04:34:54.872Z,100855.06
2022-08-12T04:37:22.134Z,100843.19
2022-08-12T04:39:50.227Z,100843.97
2022-08-12T04:42:17.401Z,100847.59
2022-08-12T04:44:45.421Z,100847.63
2022-08-12T04:47:17.176Z,100854.78
2022-08-12T04:49:48.360Z,100845.66
2022-08-12T04:52:15.643Z,100851.22
2022-08-12T04:54:44.264Z,100852.03
2022-08-12T04:57:12.005Z,100853.66
2022-08-12T04:59:46.567Z,100855.66
2022-08-12T05:02:21.478Z,100862.41
2022-08-12T05:04:55.860Z,100855.28
2022-08-12T05:07:23.539Z,100853.69
2022-08-12T05:09:59.036Z,100857.31
2022-08-12T05:12:34.485Z,100849.75
2022-08-12T05:15:01.933Z,100858.88
2022-08-12T05:17:29.143Z,100863.28
2022-08-12T05:19:58.113Z,100858.53
2022-08-12T05:22:28.615Z,100852.59
2022-08-12T05:24:55.931Z,100858.56
2022-08-12T05:27:23.131Z,100858.56
2022-08-12T05:30:05.583Z,100856.19
2022-08-12T05:32:37.269Z,100855.38
2022-08-12T05:35:07.127Z,100848.63
2022-08-12T05:37:35.704Z,100845.06
2022-08-12T05:40:10.587Z,100837.16
2022-08-12T05:42:39.053Z,100829.59
2022-08-12T05:45:07.347Z,100830.81
2022-08-12T05:47:52.619Z,100820.13
2022-08-12T05:50:20.774Z,100830.44
2022-08-12T05:52:48.650Z,100830.06
2022-08-12T05:55:16.056Z,100843.16
2022-08-12T05:57:48.655Z,100835.19
2022-08-12T06:00:17.601Z,100846.56
2022-08-12T06:02:46.720Z,100842.44
2022-08-12T06:05:14.221Z,100844.41
2022-08-12T06:08:01.836Z,100838.38
2022-08-12T06:10:33.316Z,100832.16
2022-08-12T06:13:02.722Z,100840.38
2022-08-12T06:15:31.975Z,100837.97
2022-08-12T06:18:11.939Z,100842.81
2022-08-12T06:20:43.939Z,100832.94
2022-08-12T06:23:12.128Z,100842.56
2022-08-12T06:25:39.451Z,100834.22
2022-08-12T06:28:17.700Z,100836.31
2022-08-12T06:30:53.093Z,100836.78
2022-08-12T06:33:59.481Z,100846.84
2022-08-12T06:36:23.446Z,100852.97
2022-08-12T06:38:51.750Z,100851.09
2022-08-12T06:41:37.231Z,100841.16
2022-08-12T06:44:09.279Z,100848.34
2022-08-12T06:46:39.585Z,100852.31
2022-08-12T06:49:07.128Z,100843.16
2022-08-12T06:51:34.526Z,100843.16
2022-08-12T06:54:02.028Z,100830.44
2022-08-12T06:57:01.793Z,100827.22
2022-08-12T06:59:17.202Z,100834.03
2022-08-12T07:01:50.859Z,100835.22
2022-08-12T07:04:36.159Z,100834.03
2022-08-12T07:07:05.713Z,100813.69
2022-08-12T07:10:04.375Z,100832.41
2022-08-12T07:12:20.125Z,100840.34
2022-08-12T07:14:51.735Z,100845.09
2022-08-12T07:17:19.224Z,100850.25
2022-08-12T07:19:48.714Z,100849.44
2022-08-12T07:22:16.629Z,100845.84
2022-08-12T07:25:04.156Z,100840.59
2022-08-12T07:27:31.537Z,100857.16
2022-08-12T07:30:04.113Z,100853.06
2022-08-12T07:32:32.534Z,100869.78
2022-08-12T07:34:59.778Z,100883.53
2022-08-12T07:37:26.927Z,100884.88
2022-08-12T07:39:59.550Z,100894.72
2022-08-12T07:42:29.516Z,100899.44
2022-08-12T07:44:57.324Z,100905.84
2022-08-12T07:47:25.303Z,100903.88
2022-08-12T07:50:05.633Z,100916.19
2022-08-12T07:52:35.439Z,100935.84
2022-08-12T07:55:03.645Z,100935.34
2022-08-12T07:57:34.203Z,100940.59
2022-08-12T08:00:06.707Z,100938.06
2022-08-12T08:02:37.805Z,100933.56
2022-08-12T08:05:05.662Z,100932.44
2022-08-12T08:07:33.261Z,100938.66
2022-08-12T08:10:02.453Z,100949.38
2022-08-12T08:12:48.599Z,100949.13
2022-08-12T08:15:16.670Z,100940.22
2022-08-12T08:18:03.178Z,100952.63
2022-08-12T08:20:34.102Z,100947.47
2022-08-12T08:23:06.405Z,100942.28
2022-08-12T08:25:37.688Z,100947.44
2022-08-12T08:28:11.187Z,100933.47
2022-08-12T08:30:43.189Z,100934.69
2022-08-12T08:33:23.046Z,100942.25
2022-08-12T08:35:54.273Z,100936.66
2022-08-12T08:38:32.640Z,100939.88
2022-08-12T08:42:13.895Z,100939.09
2022-08-12T08:44:11.440Z,100934.72
2022-08-12T08:46:40.203Z,100932.72
2022-08-12T08:49:09.494Z,100929.13
2022-08-12T08:51:37.507Z,100921.16
2022-08-12T08:54:07.122Z,100925.56
2022-08-12T08:56:43.033Z,100925.53
2022-08-12T08:59:12.096Z,100922.22
2022-08-12T09:01:40.240Z,100920.66
2022-08-12T09:05:08.165Z,100919.88
2022-08-12T09:07:00.420Z,100931.50
2022-08-12T09:10:01.599Z,100926.84
2022-08-12T09:12:55.179Z,100921.50
2022-08-12T09:15:35.277Z,100919.53
2022-08-12T09:18:08.812Z,100923.19
2022-08-12T09:20:38.601Z,100924.75
2022-08-12T09:24:00.568Z,100927.44
2022-08-12T09:26:04.223Z,100925.94
2022-08-12T09:28:33.633Z,100924.78
2022-08-12T09:31:01.597Z,100926.63
2022-08-12T09:34:25.759Z,100928.25
2022-08-12T09:36:31.102Z,100935.84
2022-08-12T09:40:06.164Z,100934.22
2022-08-12T09:42:53.150Z,100938.59
2022-08-12T09:45:24.573Z,100942.97
2022-08-12T09:48:10.312Z,100944.84
2022-08-12T09:50:55.638Z,100937.38
2022-08-12T09:53:36.008Z,100941.75
2022-08-12T09:56:57.075Z,100939.72
2022-08-12T09:58:59.860Z,100927.78
2022-08-12T10:01:34.381Z,100930.06
2022-08-12T10:04:19.900Z,100920.09
2022-08-12T10:06:55.046Z,100911.16
2022-08-12T10:09:56.901Z,100909.69
2022-08-12T10:13:06.497Z,100909.88
2022-08-12T10:16:02.551Z,100909.75
2022-08-12T10:18:07.824Z,100900.06
2022-08-12T10:20:35.291Z,100902.41
2022-08-12T10:23:03.660Z,100910.41
2022-08-12T10:26:34.686Z,100908.19
2022-08-12T10:29:02.821Z,100897.28
2022-08-12T10:32:19.767Z,100898.53
2022-08-12T10:34:26.270Z,100900.25
2022-08-12T10:37:00.421Z,100896.88
2022-08-12T10:40:08.271Z,100898.53
2022-08-12T10:43:00.508Z,100891.41
2022-08-12T10:45:30.470Z,100883.78
2022-08-12T10:48:07.550Z,100886.94
2022-08-12T10:51:00.347Z,100885.28
2022-08-12T10:53:44.304Z,100883.84
2022-08-12T10:56:14.010Z,100880.59
2022-08-12T10:58:46.067Z,100890.50
2022-08-12T11:01:50.290Z,100878.47
2022-08-12T11:04:20.568Z,100882.13
2022-08-12T11:07:07.395Z,100878.50
2022-08-12T11:09:55.778Z,100870.50
2022-08-12T11:12:56.675Z,100868.09
2022-08-12T11:15:24.316Z,100870.16
2022-08-12T11:18:12.059Z,100874.16
2022-08-12T11:20:45.481Z,100891.16
2022-08-12T11:23:24.582Z,100891.22
2022-08-12T11:26:05.526Z,100890.16
2022-08-12T11:28:36.954Z,100893.31
2022-08-12T11:31:12.134Z,100898.88
2022-08-12T11:34:04.502Z,100890.19
2022-08-12T11:36:31.215Z,100901.22
2022-08-12T11:39:04.121Z,100902.75
2022-08-12T11:41:33.907Z,100907.66
2022-08-12T11:44:20.231Z,100913.25
2022-08-12T11:46:51.339Z,100915.09
2022-08-12T11:49:30.677Z,100926.94
2022-08-12T11:52:00.332Z,100928.94
2022-08-12T11:54:29.565Z,100925.13
2022-08-12T11:57:00.589Z,100916.88
2022-08-12T12:02:20.574Z,100921.69
2022-08-12T12:04:52.310Z,100919.19
2022-08-12T12:07:33.680Z,100911.66
2022-08-12T12:10:11.749Z,100908.25
2022-08-12T12:12:41.560Z,100909.97
2022-08-12T12:15:24.729Z,100914.50
2022-08-12T12:17:55.019Z,100902.28
2022-08-12T12:20:26.004Z,100908.31
2022-08-12T12:22:55.069Z,100905.22
2022-08-12T12:25:59.653Z,100893.63
2022-08-12T12:28:09.843Z,100895.59
2022-08-12T12:30:57.211Z,100907.13
2022-08-12T12:33:26.933Z,100904.34
2022-08-12T12:36:20.291Z,100908.78
2022-08-12T12:38:50.410Z,100909.97
2022-08-12T12:41:17.550Z,100906.75
2022-08-12T12:43:56.567Z,100901.53
2022-08-12T12:46:31.913Z,100901.88
2022-08-12T12:48:59.062Z,100901.16
2022-08-12T12:51:49.109Z,100899.13
2022-08-12T12:54:13.628Z,100889.16
2022-08-12T12:56:47.968Z,100881.19
2022-08-12T12:59:55.230Z,100890.28
2022-08-12T13:02:08.695Z,100882.78
2022-08-12T13:04:37.874Z,100877.59
2022-08-12T13:07:06.550Z,100873.63
2022-08-12T13:09:36.085Z,100875.63
2022-08-12T13:12:14.566Z,100881.28
2022-08-12T13:15:17.032Z,100877.66
2022-08-12T13:18:38.869Z,100886.44
2022-08-12T13:21:43.292Z,100882.06
2022-08-12T13:24:36.683Z,100874.84
2022-08-12T13:27:48.403Z,100871.25
2022-08-12T13:30:48.394Z,100866.06
2022-08-12T13:34:32.870Z,100860.91
2022-08-12T13:36:45.487Z,100870.59
2022-08-12T13:39:16.265Z,100872.97
2022-08-12T13:41:44.715Z,100863.81
2022-08-12T13:44:13.766Z,100856.22
2022-08-12T13:46:43.727Z,100861.00
2022-08-12T13:49:54.486Z,100854.63
2022-08-12T13:52:15.683Z,100858.19
2022-08-12T13:55:13.666Z,100868.19
2022-08-12T13:57:44.440Z,100859.44
2022-08-12T14:00:45.397Z,100861.81
2022-08-12T14:17:19.935Z,100870.47
2022-08-12T14:20:08.209Z,100860.16
2022-08-12T14:24:01.604Z,100866.53
2022-08-12T14:25:51.398Z,100868.88
2022-08-12T14:28:27.959Z,100872.94
2022-08-12T14:31:01.198Z,100870.16
2022-08-12T14:33:44.115Z,100882.13
2022-08-12T14:36:14.837Z,100880.84
2022-08-12T14:38:47.050Z,100885.63
2022-08-12T14:41:20.764Z,100877.72
2022-08-12T14:44:04.833Z,100886.88
2022-08-12T14:46:44.164Z,100879.66
2022-08-12T14:53:04.582Z,100877.00
2022-08-12T14:58:06.909Z,100871.78
2022-08-12T15:00:53.419Z,100871.41
2022-08-12T15:03:52.504Z,100871.81
2022-08-12T15:06:39.084Z,100868.63
2022-08-12T15:09:12.231Z,100865.81
2022-08-12T15:11:54.881Z,100872.59
2022-08-12T15:14:27.699Z,100878.59
2022-08-12T15:17:00.736Z,100868.25
2022-08-12T15:20:11.529Z,100861.47
2022-08-12T15:22:54.016Z,100855.91
2022-08-12T15:25:22.068Z,100851.50
2022-08-12T15:28:05.159Z,100861.06
2022-08-12T15:30:42.787Z,100862.25
2022-08-12T15:33:20.963Z,100865.84
2022-08-12T15:36:02.694Z,100857.09
2022-08-12T15:38:54.127Z,100849.53
2022-08-12T15:41:23.035Z,100851.94
2022-08-12T15:44:37.709Z,100855.91
2022-08-12T15:46:45.901Z,100854.72
2022-08-12T15:49:16.862Z,100864.28
2022-08-12T15:51:59.163Z,100848.38
2022-08-12T15:54:42.276Z,100850.34
2022-08-12T15:57:17.192Z,100852.31
2022-08-12T16:00:00.808Z,100850.34
2022-08-12T16:02:50.403Z,100858.28
2022-08-12T16:06:19.157Z,100857.13
2022-08-12T16:08:24.033Z,100865.84
2022-08-12T16:11:00.776Z,100869.84
2022-08-12T16:13:36.920Z,100870.22
2022-08-12T16:16:22.911Z,100874.56
2022-08-12T16:18:59.602Z,100859.50
2022-08-12T16:21:52.243Z,100855.50
2022-08-12T16:24:26.127Z,100857.50
2022-08-12T16:26:54.247Z,100865.44
2022-08-12T16:29:38.632Z,100859.88
2022-08-12T16:32:31.268Z,100861.03
2022-08-12T16:35:01.582Z,100866.63
2022-08-12T16:38:25.844Z,100861.84
2022-08-12T16:40:28.176Z,100868.22
2022-08-12T16:43:02.119Z,100874.56
2022-08-12T16:46:24.060Z,100872.19
2022-08-12T16:48:35.653Z,100872.97
2022-08-12T16:51:12.938Z,100872.56
2022-08-12T16:53:46.802Z,100868.19
2022-08-12T16:56:17.436Z,100870.56
2022-08-12T16:58:47.416Z,100863.78
2022-08-12T17:01:16.808Z,100865.41
2022-08-12T17:04:08.606Z,100856.22
2022-08-12T17:07:11.038Z,100857.03
2022-08-12T17:09:45.566Z,100866.97
2022-08-12T17:12:14.482Z,100868.91
2022-08-12T17:14:43.079Z,100867.31
2022-08-12T17:17:48.042Z,100868.91
2022-08-12T17:20:35.440Z,100863.34
2022-08-12T17:23:13.503Z,100864.13
2022-08-12T17:25:45.185Z,100864.13
2022-08-12T17:28:22.505Z,100872.91
2022-08-12T17:31:00.113Z,100870.13
2022-08-12T17:33:34.488Z,100870.91
2022-08-12T17:36:05.904Z,100874.91
2022-08-12T17:38:39.927Z,100881.66
2022-08-12T17:41:22.439Z,100885.59
2022-08-12T17:44:00.187Z,100885.22
2022-08-12T17:46:32.268Z,100885.22
2022-08-12T17:49:18.931Z,100885.59
2022-08-12T17:52:02.296Z,100892.38
2022-08-12T17:54:31.373Z,100896.72
2022-08-12T17:57:10.675Z,100892.34
2022-08-12T17:59:49.522Z,100901.88
2022-08-12T18:02:38.570Z,100908.59
2022-08-12T18:05:55.311Z,100908.22
2022-08-12T18:08:54.147Z,100910.94
2022-08-12T18:12:04.139Z,100898.22
2022-08-12T18:14:37.106Z,100900.97
2022-08-12T18:17:08.814Z,100899.75
2022-08-12T18:20:06.588Z,100901.41
2022-08-12T18:22:59.622Z,100910.94
2022-08-12T18:26:15.390Z,100910.94
2022-08-12T18:28:43.298Z,100914.88
2022-08-12T18:31:18.284Z,100918.84
2022-08-12T18:33:48.988Z,100919.63
2022-08-12T18:36:22.120Z,100912.06
2022-08-12T18:39:01.279Z,100909.69
2022-08-12T18:41:39.166Z,100913.66
2022-08-12T18:44:45.735Z,100919.59
2022-08-12T18:47:18.787Z,100917.59
2022-08-12T18:50:14.091Z,100920.75
2022-08-12T18:52:49.342Z,100920.75
2022-08-12T18:55:17.131Z,100910.03
2022-08-12T18:58:08.593Z,100917.59
2022-08-12T19:01:05.520Z,100933.06
2022-08-12T19:03:45.434Z,100928.28
2022-08-12T19:06:46.689Z,100932.63
2022-08-12T19:09:39.010Z,100939.34
2022-08-12T19:12:37.123Z,100938.56
2022-08-12T19:15:08.946Z,100940.13
2022-08-12T19:17:56.849Z,100950.47
2022-08-12T19:20:25.912Z,100954.41
2022-08-12T19:22:59.981Z,100945.28
2022-08-12T19:26:27.817Z,100946.06
2022-08-12T19:29:31.119Z,100950.44
2022-08-12T19:32:23.345Z,100948.03
2022-08-12T19:36:07.116Z,100953.56
2022-08-12T19:38:16.462Z,100948.81
2022-08-12T19:40:53.700Z,100958.78
2022-08-12T19:44:00.794Z,100962.31
2022-08-12T19:49:28.914Z,100948.78
2022-08-12T19:51:58.082Z,100961.09
2022-08-12T19:54:30.596Z,100951.94
2022-08-12T19:57:17.213Z,100956.66
2022-08-12T20:00:04.201Z,100947.88
2022-08-12T20:03:03.028Z,100950.66
2022-08-12T20:06:06.483Z,100945.03
2022-08-12T20:08:31.697Z,100951.75
2022-08-12T20:12:12.608Z,100951.75
2022-08-12T20:14:01.271Z,100954.97
2022-08-12T20:16:56.543Z,100957.72
2022-08-12T20:22:44.953Z,100960.81
2022-08-12T20:25:51.891Z,100953.69
2022-08-12T20:28:34.401Z,100954.09
2022-08-12T20:31:04.288Z,100951.75
2022-08-12T20:34:03.805Z,100944.97
2022-08-12T20:36:45.452Z,100944.97
2022-08-12T20:39:37.356Z,100953.38
2022-08-12T20:42:10.826Z,100954.56
2022-08-12T20:45:02.132Z,100947.78
2022-08-12T20:47:46.718Z,100945.41
2022-08-12T20:50:53.457Z,100942.16
2022-08-12T20:53:33.230Z,100944.47
2022-08-12T20:56:30.615Z,100947.22
2022-08-12T20:59:08.856Z,100945.22
2022-08-12T21:01:47.458Z,100945.22
2022-08-12T21:04:37.385Z,100946.06
2022-08-12T21:07:10.419Z,100950.44
2022-08-12T21:09:45.774Z,100954.41
2022-08-12T21:12:31.620Z,100952.00
2022-08-12T21:15:23.138Z,100952.78
2022-08-12T21:18:11.094Z,100951.19
2022-08-12T21:20:54.355Z,100952.78
2022-08-12T21:23:23.342Z,100955.97
2022-08-12T21:26:01.333Z,100958.75
2022-08-12T21:28:32.046Z,100963.50
2022-08-12T21:32:36.021Z,100971.03
2022-08-12T21:34:07.017Z,100968.19
2022-08-12T21:36:40.353Z,100970.56
2022-08-12T21:39:18.383Z,100978.09
2022-08-12T21:41:51.927Z,100972.13
2022-08-12T21:44:24.117Z,100976.88
2022-08-12T21:47:21.718Z,100974.09
2022-08-12T21:50:03.372Z,100970.53
2022-08-12T21:52:41.097Z,100961.81
2022-08-12T21:55:18.761Z,100978.47
2022-08-12T21:57:53.932Z,100972.91
2022-08-12T22:00:32.492Z,100970.13
2022-08-12T22:04:02.301Z,100969.78
2022-08-12T22:06:31.135Z,100978.91
2022-08-12T22:09:16.552Z,100978.09
2022-08-12T22:11:58.686Z,100968.16
2022-08-12T22:14:30.271Z,100973.69
2022-08-12T22:17:00.452Z,100973.34
2022-08-12T22:19:28.260Z,100959.09
2022-08-12T22:21:58.685Z,100960.75
2022-08-12T22:24:30.326Z,100956.41
2022-08-12T22:27:14.295Z,100959.97
2022-08-12T22:30:05.643Z,100964.72
2022-08-12T22:32:38.888Z,100960.34
2022-08-12T22:35:29.538Z,100962.78
2022-08-12T22:38:19.409Z,100962.38
2022-08-12T22:40:48.491Z,100963.16
2022-08-12T22:43:34.428Z,100961.56
2022-08-12T22:46:14.043Z,100958.00
2022-08-12T22:48:50.303Z,100940.94
2022-08-12T22:51:22.175Z,100933.41
2022-08-12T22:53:55.498Z,100948.09
2022-08-12T22:56:30.804Z,100942.91
2022-08-12T22:59:02.609Z,100934.94
2022-08-12T23:01:52.037Z,100929.38
2022-08-12T23:04:27.597Z,100931.75
2022-08-12T23:06:58.486Z,100931.75
2022-08-12T23:09:48.069Z,100930.94
2022-08-12T23:12:38.977Z,100936.47
2022-08-12T23:15:09.065Z,100937.22
2022-08-12T23:17:40.642Z,100939.16
2022-08-12T23:20:11.090Z,100941.09
2022-08-12T23:22:40.197Z,100934.75
2022-08-12T23:25:21.091Z,100923.59
2022-08-12T23:28:29.419Z,100912.03
2022-08-12T23:31:04.186Z,100909.66
2022-08-12T23:34:02.120Z,100908.88
2022-08-12T23:36:39.379Z,100904.47
2022-08-12T23:40:06.682Z,100898.09
2022-08-12T23:42:17.836Z,100898.09
2022-08-12T23:44:48.459Z,100890.97
2022-08-12T23:47:23.023Z,100889.78
2022-08-12T23:49:58.020Z,100901.28
2022-08-12T23:52:34.253Z,100896.50
2022-08-12T23:55:23.874Z,100904.00
2022-08-12T23:58:18.380Z,100909.91
